Latest Weather Observations for South Channel Island

IDV60801

Issued at 11:31 pm EDT Sunday 21 December 2014 (issued every 30 minutes, with the page automatically refreshed every 10 minutes)

About weather observations | Map of weather stations | Latest weather observations for VIC | Other Formats
Station Details ID: 086344 Name: SOUTH CHANNEL ISLAND Lat: -38.31 Lon: 144.80 Height: 9.0 m
Data from the previous 72 hours. | See also: Recent months for locations in Victoria
Date/Time
EDT
Temp
°C
App
Temp
°C
Dew
Point
Rel
Hum
%
Delta-T
°C
Wind Press
QNH
hPa
Press
MSL
hPa
Rain
since 9 am
mm
Dir
 
Spd
km/h
Gust
km/h
Spd
kts
Gust
kts
21/11:30pm - - - - - S 33 39 18 21 - - -
21/11:00pm - - - - - S 33 39 18 21 - - -
21/10:30pm - - - - - SSW 35 39 19 21 - - -
21/10:00pm - - - - - S 35 41 19 22 - - -
21/09:30pm - - - - - SSW 37 43 20 23 - - -
21/09:00pm - - - - - SSW 26 32 14 17 - - -
21/08:30pm - - - - - S 26 28 14 15 - - -
21/08:00pm - - - - - S 30 33 16 18 - - -
21/07:30pm - - - - - S 30 35 16 19 - - -
21/07:00pm - - - - - SSE 24 26 13 14 - - -
21/06:30pm - - - - - SSE 22 26 12 14 - - -
21/06:00pm - - - - - SSW 32 37 17 20 - - -
21/05:30pm - - - - - SSE 20 24 11 13 - - -
21/05:00pm - - - - - SSE 28 30 15 16 - - -
21/04:30pm - - - - - S 33 39 18 21 - - -
21/04:00pm - - - - - SSW 22 33 12 18 - - -
21/03:59pm - - - - - SSW 20 33 11 18 - - -
21/03:30pm - - - - - SSW 7 11 4 6 - - -
21/03:00pm - - - - - E 11 11 6 6 - - -
21/02:30pm - - - - - ENE 9 9 5 5 - - -
21/02:00pm - - - - - SE 7 7 4 4 - - -
21/01:30pm - - - - - E 6 7 3 4 - - -
21/01:00pm - - - - - NNE 4 7 2 4 - - -
21/12:30pm - - - - - N 4 9 2 5 - - -
21/12:00pm - - - - - SSW 7 7 4 4 - - -
21/11:30am - - - - - W 6 7 3 4 - - -
21/11:00am - - - - - ESE 6 7 3 4 - - -
21/10:30am - - - - - NE 11 13 6 7 - - -
21/10:00am - - - - - NE 15 17 8 9 - - -
21/09:30am - - - - - NE 19 20 10 11 - - -
21/09:00am - - - - - ENE 19 20 10 11 - - -
21/08:30am - - - - - ENE 19 22 10 12 - - -
21/08:00am - - - - - ENE 20 26 11 14 - - -
21/07:30am - - - - - ENE 17 19 9 10 - - -
21/07:00am - - - - - E 13 15 7 8 - - -
21/06:30am - - - - - ENE 13 15 7 8 - - -
21/06:00am - - - - - ENE 15 17 8 9 - - -
21/05:30am - - - - - NE 15 17 8 9 - - -
21/05:00am - - - - - NE 19 20 10 11 - - -
21/04:30am - - - - - ENE 20 26 11 14 - - -
21/04:00am - - - - - ENE 17 20 9 11 - - -
21/03:30am - - - - - ENE 17 20 9 11 - - -
21/03:00am - - - - - ENE 15 19 8 10 - - -
21/02:30am - - - - - SE 11 15 6 8 - - -
21/02:00am - - - - - SE 15 19 8 10 - - -
21/01:30am - - - - - SE 13 15 7 8 - - -
21/01:00am - - - - - SE 13 15 7 8 - - -
21/12:30am - - - - - SE 13 17 7 9 - - -
21/12:00am - - - - - SSE 13 15 7 8 - - -
 
Date/Time
EDT
Temp
°C
App
Temp
°C
Dew
Point
Rel
Hum
%
Delta-T
°C
Wind Press
QNH
hPa
Press
MSL
hPa
Rain
since 9 am
mm
Dir
 
Spd
km/h
Gust
km/h
Spd
kts
Gust
kts
20/11:30pm - - - - - S 13 13 7 7 - - -
20/11:00pm - - - - - S 13 15 7 8 - - -
20/10:30pm - - - - - S 15 17 8 9 - - -
20/10:00pm - - - - - S 13 17 7 9 - - -
20/09:30pm - - - - - S 17 20 9 11 - - -
20/09:00pm - - - - - S 17 20 9 11 - - -
20/08:30pm - - - - - S 22 26 12 14 - - -
20/08:00pm - - - - - S 24 28 13 15 - - -
20/07:30pm - - - - - SSW 24 30 13 16 - - -
20/07:00pm - - - - - S 28 33 15 18 - - -
20/06:30pm - - - - - S 28 32 15 17 - - -
20/06:00pm - - - - - S 30 33 16 18 - - -
20/05:30pm - - - - - S 30 33 16 18 - - -
20/05:00pm - - - - - S 30 33 16 18 - - -
20/04:30pm - - - - - SSW 30 33 16 18 - - -
20/04:00pm - - - - - S 30 33 16 18 - - -
20/03:30pm - - - - - SSW 26 32 14 17 - - -
20/03:00pm - - - - - SSW 26 30 14 16 - - -
20/02:30pm - - - - - SSW 26 30 14 16 - - -
20/02:00pm - - - - - SSW 24 30 13 16 - - -
20/01:30pm - - - - - SSW 24 28 13 15 - - -
20/01:00pm - - - - - SSW 19 28 10 15 - - -
20/12:30pm - - - - - SW 15 26 8 14 - - -
20/12:00pm - - - - - SW 19 26 10 14 - - -
20/11:30am - - - - - WNW 15 19 8 10 - - -
20/11:00am - - - - - WNW 24 30 13 16 - - -
20/10:30am - - - - - WNW 26 32 14 17 - - -
20/10:00am - - - - - WNW 30 33 16 18 - - -
20/09:30am - - - - - WNW 26 30 14 16 - - -
20/09:00am - - - - - WNW 26 30 14 16 - - -
20/08:30am - - - - - W 20 26 11 14 - - -
20/08:00am - - - - - W 24 30 13 16 - - -
20/07:30am - - - - - W 22 26 12 14 - - -
20/07:00am - - - - - W 19 24 10 13 - - -
20/06:30am - - - - - WSW 24 26 13 14 - - -
20/06:00am - - - - - W 22 26 12 14 - - -
20/05:30am - - - - - W 20 26 11 14 - - -
20/05:00am - - - - - W 20 24 11 13 - - -
20/04:30am - - - - - W 19 24 10 13 - - -
20/04:00am - - - - - W 22 28 12 15 - - -
20/03:30am - - - - - W 20 24 11 13 - - -
20/03:00am - - - - - WNW 20 26 11 14 - - -
20/02:30am - - - - - WNW 19 24 10 13 - - -
20/02:00am - - - - - WNW 20 26 11 14 - - -
20/01:30am - - - - - W 17 22 9 12 - - -
20/01:00am - - - - - WSW 19 24 10 13 - - -
20/12:30am - - - - - SW 24 28 13 15 - - -
20/12:00am - - - - - SW 24 30 13 16 - - -
 
Date/Time
EDT
Temp
°C
App
Temp
°C
Dew
Point
Rel
Hum
%
Delta-T
°C
Wind Press
QNH
hPa
Press
MSL
hPa
Rain
since 9 am
mm
Dir
 
Spd
km/h
Gust
km/h
Spd
kts
Gust
kts
19/11:30pm - - - - - SW 28 33 15 18 - - -
19/11:00pm - - - - - SW 33 41 18 22 - - -
19/10:30pm - - - - - SSW 32 37 17 20 - - -
19/10:00pm - - - - - SSW 35 41 19 22 - - -
19/09:30pm - - - - - SSW 35 43 19 23 - - -
19/09:00pm - - - - - SSW 37 43 20 23 - - -
19/08:30pm - - - - - SSW 35 43 19 23 - - -
19/08:00pm - - - - - SSW 33 39 18 21 - - -
19/07:30pm - - - - - SSW 37 44 20 24 - - -
19/07:00pm - - - - - SSW 37 44 20 24 - - -
19/06:30pm - - - - - SSW 37 46 20 25 - - -
19/06:00pm - - - - - SSW 33 43 18 23 - - -
19/05:30pm - - - - - SSW 35 46 19 25 - - -
19/05:00pm - - - - - SSW 35 43 19 23 - - -
19/04:30pm - - - - - SSW 32 43 17 23 - - -
19/04:00pm - - - - - SSW 33 43 18 23 - - -
19/03:30pm - - - - - SSW 32 41 17 22 - - -
19/03:00pm - - - - - SSW 30 37 16 20 - - -
19/02:30pm - - - - - SSW 26 35 14 19 - - -
19/02:00pm - - - - - SSW 28 33 15 18 - - -
19/01:30pm - - - - - SSW 24 33 13 18 - - -
19/01:00pm - - - - - SSW 28 33 15 18 - - -
19/12:30pm - - - - - SW 28 33 15 18 - - -
19/12:00pm - - - - - SW 35 43 19 23 - - -
19/11:30am - - - - - SW 33 41 18 22 - - -
19/11:00am - - - - - SW 35 41 19 22 - - -
19/10:30am - - - - - SW 33 39 18 21 - - -
19/10:00am - - - - - SW 35 48 19 26 - - -
19/09:30am - - - - - WNW 26 33 14 18 - - -
19/09:00am - - - - - W 30 33 16 18 - - -
19/08:30am - - - - - W 28 33 15 18 - - -
19/08:00am - - - - - WSW 33 37 18 20 - - -
19/07:30am - - - - - W 35 44 19 24 - - -
19/07:00am - - - - - W 37 46 20 25 - - -
19/06:30am - - - - - W 32 35 17 19 - - -
19/06:00am - - - - - WSW 33 41 18 22 - - -
19/05:30am - - - - - WSW 33 39 18 21 - - -
19/05:00am - - - - - W 39 52 21 28 - - -
19/04:30am - - - - - W 32 35 17 19 - - -
19/04:00am - - - - - W 32 37 17 20 - - -
19/03:30am - - - - - W 24 33 13 18 - - -
19/03:00am - - - - - W 35 39 19 21 - - -
19/02:30am - - - - - W 32 37 17 20 - - -
19/02:00am - - - - - SW 24 32 13 17 - - -
19/01:46am - - - - - WSW 35 46 19 25 - - -
19/01:30am - - - - - W 33 39 18 21 - - -
19/01:00am - - - - - W 33 37 18 20 - - -
19/12:30am - - - - - W 33 39 18 21 - - -
19/12:00am - - - - - WSW 28 33 15 18 - - -

Other Formats:

Comma delimited format used in spreadsheet applications
http://www.bom.gov.au/fwo/IDV60801/IDV60801.94853.axf

JavaScript Object Notation format (JSON) in row-major order
http://www.bom.gov.au/fwo/IDV60801/IDV60801.94853.json